Holy City, California
Current Conditions -  °F | °C
As of 1:53 AM on Friday 28 Nov 2014 (Local Time) from KSJC Reporting Station
Clear Clear  
Wind Chill: 44°   Ceiling: Unl
Heat Index: 44°   Visibility: 10mi
Dew Point: 37°   Wind: 3mph
Humidity: 76%   Direction: 140°SE
Pressure: 30.05"   Gusts: NA
Location:  37.16°N, 121.98°W
Report Text: KSJC 280953Z AUTO 14003KT 10SM CLR 07/03 A3005 RMK AO2 SLP177 T00670028
Loading
Personal Weather Stations






























Interactive Weather Map New forecast layout! Learn more

10-Day Weather Forecast

Advertisements
Track Severe Weather on mobile